ENFB

Oslo, Fornebu Airport

Oslo, Norway
METAR ENFB 092220Z AUTO 32032KT 9999NDV BKN025/// BKN095/// 05/01 Q1004 W///S6
Observed Flight Rules
Dec-9 @ 22:20 UTC (25 minutes ago)
Wind Clouds
320° at 32 knots
  • Broken at 2,500' AGL
  • Broken at 9,500' AGL
Temperatures Readings
Current 5°C / 41°F
Dewpoint 1°C / 34°F
Humidity 76%
Altimeter 29.65" Hg
Pressure 1004 hPa
Elevation 10
METAR ENFB 092220Z AUTO 32032KT 9999NDV BKN025/// BKN095/// 05/01 Q1004 W///S6
Observed Flight Rules
Dec-9 @ 22:20 UTC
(25 minutes ago)
Wind
320° at 32 knots
Clouds
  • Broken at 2,500' AGL
  • Broken at 9,500' AGL
Temperature Dewpoint
5°C / 41°F 1°C / 34°F
Humidity Altimeter Pressure
76% 29.65" Hg 1004 hPa